OKTOBER 23,2014


METAR SMJP 231200Z 14007KT 100V160 9999 FEW015 28/24 Q1013 NOSIG=

METAR SMZO 231200Z 12006KT 9999 SCT015 28/25 Q1013 NOSIG=

METAR SMNI 231200Z 13007KT 9999 FEW015 29/24 Q1013=